Time;durP1;ratioP1;P1;durP2;ratioP2;P2;SDS_P1;SDS_P2;PMS_P1;PMS_P2;Temp;Humidity;BMP_temperature;BMP_pressure;BME280_temperature;BME280_humidity;BME280_pressure;Samples;Min_cycle;Max_cycle;Signal;HPM_P1;HPM_P2
2021/03/08 00:01:01;;;;;;;25.15;15.18;;;25.80;1740.80;;;;;;4962129;28;20420;-75
2021/03/08 00:03:27;;;;;;;51.13;19.92;;;25.80;1689.60;;;;;;4963466;28;20031;-72
2021/03/08 00:05:52;;;;;;;53.00;21.00;;;25.80;1715.20;;;;;;4961635;28;20085;-73
2021/03/08 00:08:19;;;;;;;39.42;17.98;;;25.80;1715.20;;;;;;4967481;28;20043;-73
2021/03/08 00:10:45;;;;;;;29.77;15.95;;;25.80;1689.60;;;;;;4980879;28;20048;-69
2021/03/08 00:13:11;;;;;;;27.88;15.00;;;25.80;1715.20;;;;;;4969975;28;20027;-71
2021/03/08 00:15:36;;;;;;;28.38;16.92;;;25.80;1689.60;;;;;;4951217;28;20386;-72
2021/03/08 00:18:03;;;;;;;24.65;17.75;;;25.70;1689.60;;;;;;4956404;28;20084;-73
2021/03/08 00:20:29;;;;;;;25.55;15.93;;;25.70;1689.60;;;;;;4963728;28;20023;-70
2021/03/08 00:22:56;;;;;;;24.23;15.13;;;25.70;1664.00;;;;;;4955714;28;20037;-73
2021/03/08 00:25:24;;;;;;;26.73;15.25;;;25.70;1664.00;;;;;;4944767;28;20489;-72
2021/03/08 00:27:51;;;;;;;23.08;15.27;;;25.70;1664.00;;;;;;4969714;28;20042;-73
2021/03/08 00:30:17;;;;;;;22.90;15.00;;;25.70;1664.00;;;;;;4959170;28;20094;-72
2021/03/08 00:32:44;;;;;;;20.58;13.95;;;25.70;1664.00;;;;;;4957064;28;20556;-72
2021/03/08 00:35:11;;;;;;;24.90;15.05;;;25.70;1664.00;;;;;;4952343;28;20058;-70
2021/03/08 00:37:36;;;;;;;21.30;13.85;;;25.70;1664.00;;;;;;4961707;28;20047;-71
2021/03/08 00:40:14;;;;;;;20.83;13.95;;;25.70;1638.40;;;;;;4965691;28;20029;-71
2021/03/08 00:42:41;;;;;;;22.83;14.38;;;25.70;1638.40;;;;;;4969787;28;20027;-70
2021/03/08 00:45:09;;;;;;;20.77;13.13;;;25.70;1664.00;;;;;;4960611;28;20034;-71
2021/03/08 00:47:35;;;;;;;24.60;14.98;;;25.70;1638.40;;;;;;4956301;28;20027;-71
2021/03/08 00:50:01;;;;;;;41.88;21.92;;;25.70;1689.60;;;;;;4948647;28;20045;-70
2021/03/08 00:52:26;;;;;;;47.22;23.90;;;25.70;1689.60;;;;;;4962234;28;20027;-73
2021/03/08 00:54:52;;;;;;;49.53;24.17;;;25.60;1664.00;;;;;;4967712;28;20106;-71
2021/03/08 00:57:18;;;;;;;52.63;24.63;;;25.60;1689.60;;;;;;4969730;28;20035;-70
2021/03/08 00:59:43;;;;;;;67.20;28.60;;;25.60;1715.20;;;;;;4968642;28;20033;-70
2021/03/08 01:02:09;;;;;;;63.92;26.67;;;25.60;1689.60;;;;;;4977752;28;20415;-71
2021/03/08 01:04:35;;;;;;;52.72;25.17;;;25.60;1689.60;;;;;;4968576;28;20027;-71
2021/03/08 01:07:01;;;;;;;46.42;24.05;;;25.60;1740.80;;;;;;4972875;28;20031;-76
2021/03/08 01:09:26;;;;;;;56.67;27.65;;;25.60;1740.80;;;;;;4966279;28;20110;-73
2021/03/08 01:11:52;;;;;;;59.60;24.92;;;25.60;1689.60;;;;;;4967736;28;20030;-70
2021/03/08 01:14:18;;;;;;;98.05;35.20;;;25.70;1689.60;;;;;;4972876;28;20497;-70
2021/03/08 01:16:44;;;;;;;103.53;37.58;;;25.70;1715.20;;;;;;4970030;28;20035;-73
2021/03/08 01:19:10;;;;;;;95.97;35.38;;;25.70;1715.20;;;;;;4973776;28;20039;-69
2021/03/08 01:21:36;;;;;;;106.63;37.42;;;25.80;1715.20;;;;;;4950735;28;20232;-71
2021/03/08 01:24:02;;;;;;;127.95;42.38;;;25.80;1715.20;;;;;;4967514;28;20027;-73
2021/03/08 01:26:28;;;;;;;127.82;41.05;;;25.80;1715.20;;;;;;4967591;28;20042;-69
2021/03/08 01:28:53;;;;;;;100.75;33.50;;;25.80;1715.20;;;;;;4970502;28;20051;-73
2021/03/08 01:31:19;;;;;;;88.43;34.03;;;25.80;1715.20;;;;;;4959694;28;20031;-72
2021/03/08 01:33:45;;;;;;;97.88;37.63;;;25.90;1740.80;;;;;;4958314;28;20110;-71
2021/03/08 01:36:10;;;;;;;58.90;29.05;;;25.90;1740.80;;;;;;4959090;28;20039;-74
2021/03/08 01:38:36;;;;;;;48.70;26.02;;;25.90;1715.20;;;;;;4950781;28;20524;-73
2021/03/08 01:41:02;;;;;;;36.35;20.67;;;;;;;;;;4962147;28;20016;-73
2021/03/08 01:43:28;;;;;;;27.48;15.82;;;;;;;;;;4971316;28;20031;-69
2021/03/08 01:45:54;;;;;;;20.92;13.40;;;;;;;;;;4968346;28;20027;-73
2021/03/08 01:48:21;;;;;;;30.65;18.75;;;;;;;;;;4969494;28;20027;-71
2021/03/08 01:50:48;;;;;;;28.23;17.17;;;;;;;;;;4950954;28;20035;-71
2021/03/08 01:53:16;;;;;;;25.92;16.60;;;;;;;;;;4959565;28;20038;-70
2021/03/08 01:55:42;;;;;;;22.67;16.33;;;;;;;;;;4970942;28;20491;-73
2021/03/08 01:58:09;;;;;;;23.33;13.80;;;;;;;;;;4955734;28;20399;-73
2021/03/08 02:00:36;;;;;;;18.35;13.10;;;;;;;;;;4970441;28;20023;-70
2021/03/08 02:03:02;;;;;;;17.75;11.80;;;;;;;;;;4972057;28;20038;-72
2021/03/08 02:05:30;;;;;;;18.88;12.65;;;;;;;;;;4983262;28;20033;-72
2021/03/08 02:07:56;;;;;;;16.77;11.75;;;;;;;;;;4973879;28;20024;-74
2021/03/08 02:10:22;;;;;;;17.10;11.43;;;;;;;;;;4956534;28;20035;-73
2021/03/08 02:12:48;;;;;;;16.52;11.13;;;;;;;;;;4967620;28;20019;-71
2021/03/08 02:15:17;;;;;;;14.43;11.02;;;;;;;;;;4964866;28;20035;-71
2021/03/08 02:17:51;;;;;;;18.20;11.13;;;;;;;;;;4968015;28;20039;-72
2021/03/08 02:20:26;;;;;;;15.73;11.65;;;;;;;;;;4965849;28;20035;-72
2021/03/08 02:23:11;;;;;;;18.90;13.48;;;;;;;;;;4951001;28;20036;-72
2021/03/08 02:25:56;;;;;;;21.73;13.18;;;;;;;;;;4966165;28;20063;-74
2021/03/08 02:28:22;;;;;;;18.92;12.80;;;;;;;;;;4966681;28;20027;-71
2021/03/08 02:30:52;;;;;;;16.60;11.32;;;;;;;;;;4980125;28;20037;-70
2021/03/08 02:33:23;;;;;;;16.90;11.73;;;;;;;;;;4967189;28;20163;-72
2021/03/08 02:35:51;;;;;;;17.70;11.65;;;;;;;;;;4960467;28;20043;-72
2021/03/08 02:38:20;;;;;;;18.80;11.60;;;;;;;;;;4963504;28;20796;-69
2021/03/08 02:40:47;;;;;;;19.45;11.32;;;;;;;;;;4955241;28;20027;-71
2021/03/08 02:43:20;;;;;;;17.77;10.70;;;;;;;;;;4960241;28;20035;-71
2021/03/08 02:45:47;;;;;;;13.60;9.90;;;;;;;;;;4957393;28;20026;-71
2021/03/08 02:48:14;;;;;;;15.18;10.98;;;;;;;;;;4964164;28;20030;-71
2021/03/08 02:50:41;;;;;;;16.55;11.32;;;25.60;1843.20;;;;;;4957798;28;20086;-70
2021/03/08 02:53:12;;;;;;;16.63;10.52;;;0.80;1894.40;;;;;;4965677;28;20030;-69
2021/03/08 02:55:52;;;;;;;17.52;11.30;;;0.80;1843.20;;;;;;4971398;28;20038;-70
2021/03/08 02:58:19;;;;;;;17.88;11.60;;;0.80;1843.20;;;;;;4965951;28;20158;-70
2021/03/08 03:00:47;;;;;;;18.52;11.95;;;0.80;1843.20;;;;;;4957860;28;20379;-71
2021/03/08 03:03:14;;;;;;;19.30;11.10;;;0.80;1843.20;;;;;;4957034;28;20035;-71
2021/03/08 03:05:41;;;;;;;19.58;11.48;;;0.80;1843.20;;;;;;4968070;28;20481;-72
2021/03/08 03:08:13;;;;;;;17.65;11.63;;;0.70;1868.80;;;;;;4954063;28;20035;-70
2021/03/08 03:10:40;;;;;;;19.65;11.50;;;0.70;1843.20;;;;;;4962063;28;20181;-70
2021/03/08 03:13:07;;;;;;;15.68;10.80;;;0.80;1868.80;;;;;;4946456;28;20031;-71
2021/03/08 03:15:37;;;;;;;15.30;11.80;;;0.80;1843.20;;;;;;4971239;28;20027;-71
2021/03/08 03:18:06;;;;;;;18.17;11.40;;;0.70;1843.20;;;;;;4973231;28;20035;-72
2021/03/08 03:20:34;;;;;;;15.52;10.80;;;0.70;1868.80;;;;;;4961786;28;20113;-71
2021/03/08 03:23:01;;;;;;;17.45;11.50;;;0.60;1868.80;;;;;;4968815;28;20055;-71
2021/03/08 03:25:29;;;;;;;16.70;11.23;;;0.70;1868.80;;;;;;4956732;28;20023;-70
2021/03/08 03:27:56;;;;;;;17.35;12.13;;;0.70;2073.60;;;;;;4949163;28;20055;-72
2021/03/08 03:30:25;;;;;;;15.35;11.20;;;0.50;1868.80;;;;;;4965751;28;20046;-71
2021/03/08 03:32:51;;;;;;;20.10;13.40;;;0.60;1868.80;;;;;;4962488;28;20027;-70
2021/03/08 03:35:20;;;;;;;21.15;12.65;;;0.60;1894.40;;;;;;4962116;28;20032;-71
2021/03/08 03:37:47;;;;;;;19.05;12.02;;;0.50;1920.00;;;;;;4966669;28;20159;-71
2021/03/08 03:40:15;;;;;;;16.77;10.75;;;0.40;1945.60;;;;;;4957675;28;20125;-72
2021/03/08 03:42:43;;;;;;;15.70;11.63;;;0.40;1945.60;;;;;;4971562;28;20061;-72
2021/03/08 03:45:10;;;;;;;18.08;11.63;;;0.40;1945.60;;;;;;4965282;28;20035;-71
2021/03/08 03:47:38;;;;;;;17.05;11.70;;;0.40;1945.60;;;;;;4965468;28;20091;-73
2021/03/08 03:50:08;;;;;;;15.73;10.88;;;0.40;1920.00;;;;;;4975659;28;20015;-71
2021/03/08 03:52:36;;;;;;;15.15;10.02;;;0.40;1971.20;;;;;;4960080;28;20034;-69
2021/03/08 03:55:03;;;;;;;16.65;10.65;;;0.50;1945.60;;;;;;4969981;28;20043;-71
2021/03/08 03:57:53;;;;;;;18.02;10.20;;;0.40;1920.00;;;;;;4961366;28;20039;-71
2021/03/08 04:00:23;;;;;;;16.25;10.35;;;0.50;1920.00;;;;;;4976406;28;20063;-71
2021/03/08 04:02:56;;;;;;;15.52;10.90;;;0.50;1920.00;;;;;;4966158;28;20030;-71
2021/03/08 04:05:23;;;;;;;;;;;0.50;1894.40;;;;;;4952391;28;20027;-73
2021/03/08 04:07:50;;;;;;;17.10;11.68;;;0.40;1945.60;;;;;;4962441;28;19915;-72
2021/03/08 04:10:16;;;;;;;16.10;10.98;;;0.40;1920.00;;;;;;4976701;28;20023;-71
2021/03/08 04:12:47;;;;;;;20.75;12.50;;;0.40;1945.60;;;;;;4965160;28;20570;-72
2021/03/08 04:15:15;;;;;;;22.67;14.88;;;0.40;1945.60;;;;;;4965569;28;20058;-71
2021/03/08 04:17:42;;;;;;;28.75;17.60;;;0.40;1971.20;;;;;;4970047;28;20397;-72
2021/03/08 04:20:15;;;;;;;19.33;12.27;;;0.40;1945.60;;;;;;4962492;28;20026;-70
2021/03/08 04:22:41;;;;;;;18.48;12.90;;;0.40;1971.20;;;;;;4962362;28;20034;-71
2021/03/08 04:25:08;;;;;;;18.15;12.73;;;0.40;1996.80;;;;;;4971232;28;20250;-70
2021/03/08 04:27:34;;;;;;;17.33;11.77;;;0.40;2022.40;;;;;;4971940;28;20049;-71
2021/03/08 04:30:02;;;;;;;46.45;21.83;;;0.40;1971.20;;;;;;4973341;28;20045;-72
2021/03/08 04:32:28;;;;;;;103.85;43.05;;;0.40;1945.60;;;;;;4961361;28;20508;-70
2021/03/08 04:34:54;;;;;;;58.03;32.40;;;0.40;1971.20;;;;;;4953235;28;20477;-71
2021/03/08 04:37:21;;;;;;;18.35;12.02;;;0.40;1971.20;;;;;;4950010;28;20040;-72
2021/03/08 04:39:47;;;;;;;18.92;12.70;;;0.40;1971.20;;;;;;4967511;28;20073;-71
2021/03/08 04:42:15;;;;;;;19.17;11.68;;;0.40;1996.80;;;;;;4959403;28;20043;-72
2021/03/08 04:44:42;;;;;;;17.58;12.75;;;0.40;1996.80;;;;;;4963704;28;20491;-71
2021/03/08 04:47:09;;;;;;;20.00;11.98;;;0.40;1996.80;;;;;;4973564;28;20027;-71
2021/03/08 04:49:36;;;;;;;19.00;12.90;;;0.40;1996.80;;;;;;4962566;28;20424;-71
2021/03/08 04:52:03;;;;;;;18.60;13.00;;;0.40;1996.80;;;;;;4963006;28;20499;-72
2021/03/08 04:54:28;;;;;;;20.77;13.35;;;0.40;1996.80;;;;;;4966219;28;20562;-71
2021/03/08 04:56:55;;;;;;;20.45;12.35;;;0.30;2022.40;;;;;;4953671;28;20048;-72
2021/03/08 04:59:25;;;;;;;21.65;12.88;;;0.30;2022.40;;;;;;4960499;28;20023;-73
2021/03/08 05:01:54;;;;;;;19.70;14.07;;;0.30;2022.40;;;;;;4967111;28;20473;-70
2021/03/08 05:04:22;;;;;;;18.27;12.00;;;0.30;1996.80;;;;;;4964242;28;20032;-71
2021/03/08 05:06:49;;;;;;;25.48;14.85;;;0.30;1996.80;;;;;;4962905;28;20042;-70
2021/03/08 05:09:15;;;;;;;21.27;13.88;;;0.40;2022.40;;;;;;4961080;28;20409;-72
2021/03/08 05:11:45;;;;;;;30.15;17.17;;;0.40;1996.80;;;;;;4965469;28;20050;-71
2021/03/08 05:14:18;;;;;;;24.63;15.30;;;0.40;2022.40;;;;;;4964708;28;20182;-71
2021/03/08 05:16:45;;;;;;;25.95;16.30;;;0.40;1996.80;;;;;;4955601;28;20027;-72
2021/03/08 05:19:13;;;;;;;23.58;14.38;;;0.40;2048.00;;;;;;4969752;28;20031;-72
2021/03/08 05:21:39;;;;;;;27.15;17.52;;;0.50;2073.60;;;;;;4968373;28;20400;-73
2021/03/08 05:24:06;;;;;;;28.92;16.60;;;0.90;2073.60;;;;;;4968469;28;20027;-71
2021/03/08 05:26:32;;;;;;;23.10;16.15;;;0.80;2176.00;;;;;;4974393;28;20492;-71
2021/03/08 05:28:59;;;;;;;25.95;16.23;;;0.80;2124.80;;;;;;4972418;28;20026;-69
2021/03/08 05:31:36;;;;;;;29.73;18.63;;;0.80;2099.20;;;;;;4975492;28;20023;-71
2021/03/08 05:34:04;;;;;;;30.83;17.65;;;0.80;2124.80;;;;;;4977810;28;20026;-73
2021/03/08 05:36:32;;;;;;;33.13;17.95;;;0.80;2073.60;;;;;;4974126;28;20174;-72
2021/03/08 05:38:58;;;;;;;29.08;19.27;;;0.90;2048.00;;;;;;4975136;28;20089;-71
2021/03/08 05:41:27;;;;;;;34.63;21.30;;;25.60;2048.00;;;;;;4975702;28;20034;-74
2021/03/08 05:43:57;;;;;;;23.63;17.30;;;25.70;2099.20;;;;;;4974078;28;20109;-70
2021/03/08 05:46:41;;;;;;;28.67;19.30;;;25.80;2124.80;;;;;;4972212;28;20093;-70
2021/03/08 05:49:34;;;;;;;60.10;28.70;;;26.00;2201.60;;;;;;4977150;28;20038;-73
2021/03/08 05:52:37;;;;;;;87.38;36.90;;;26.10;2099.20;;;;;;4960855;28;20031;-70
2021/03/08 05:55:24;;;;;;;184.88;54.53;;;26.20;2073.60;;;;;;4973061;28;20093;-71
2021/03/08 05:58:24;;;;;;;110.10;40.30;;;26.30;2073.60;;;;;;4982455;28;20035;-68
2021/03/08 06:01:20;;;;;;;60.55;24.52;;;26.40;2073.60;;;;;;4969065;28;20027;-70
2021/03/08 06:04:19;;;;;;;49.35;25.20;;;51.20;2099.20;;;;;;4973623;28;20054;-70
2021/03/08 06:07:09;;;;;;;42.30;24.30;;;51.60;2073.60;;;;;;4973974;28;20058;-70
2021/03/08 06:09:53;;;;;;;45.92;27.27;;;52.10;2022.40;;;;;;4982915;28;20032;-72
2021/03/08 06:12:22;;;;;;;;;;;77.20;1971.20;;;;;;4970997;28;20141;-68
2021/03/08 06:14:52;;;;;;;39.00;25.00;;;77.60;1920.00;;;;;;4974122;28;19910;-69
2021/03/08 06:17:18;;;;;;;44.60;24.80;;;102.50;1894.40;;;;;;4975565;28;20043;-70
2021/03/08 06:19:45;;;;;;;41.20;23.67;;;128.10;1868.80;;;;;;4971548;28;20401;-67
2021/03/08 06:22:12;;;;;;;43.50;25.17;;;154.20;1817.60;;;;;;4973254;28;20042;-76
2021/03/08 06:24:40;;;;;;;51.70;24.85;;;179.90;1612.80;;;;;;4974172;28;20473;-73
2021/03/08 06:27:07;;;;;;;35.28;21.30;;;205.70;1561.60;;;;;;4955207;28;20399;-74
2021/03/08 06:29:37;;;;;;;41.42;22.88;;;256.00;1408.00;;;;;;4973219;28;20037;-68
2021/03/08 06:32:04;;;;;;;30.27;21.63;;;256.80;1382.40;;;;;;4969575;28;20027;-69
2021/03/08 06:34:31;;;;;;;28.83;20.25;;;;;;;;;;4972758;28;20417;-71
2021/03/08 06:36:59;;;;;;;32.80;19.60;;;;;;;;;;4974503;28;20043;-72
2021/03/08 06:39:25;;;;;;;30.27;21.15;;;;;;;;;;4973208;28;20117;-70
2021/03/08 06:41:54;;;;;;;31.88;22.15;;;;;;;;;;4977569;28;20025;-71
2021/03/08 06:44:20;;;;;;;29.98;20.92;;;;;;;;;;4974325;28;20061;-71
2021/03/08 06:46:48;;;;;;;26.67;19.83;;;;;;;;;;4973941;28;20022;-71
2021/03/08 06:49:14;;;;;;;37.08;26.10;;;;;;;;;;4974544;28;20484;-72
2021/03/08 06:51:59;;;;;;;38.72;26.73;;;;;;;;;;4973609;28;20023;-69
2021/03/08 06:54:25;;;;;;;37.33;23.70;;;;;;;;;;4964173;28;20042;-73
2021/03/08 06:56:51;;;;;;;41.70;27.33;;;;;;;;;;4974372;28;20424;-71
2021/03/08 06:59:17;;;;;;;68.88;60.28;;;;;;;;;;4972387;28;20455;-71
2021/03/08 07:01:45;;;;;;;40.10;28.33;;;;;;;;;;4969766;28;20384;-72
2021/03/08 07:04:12;;;;;;;45.97;31.15;;;;;;;;;;4969612;28;20030;-74
2021/03/08 07:06:40;;;;;;;39.55;24.98;;;;;;;;;;4965671;28;20129;-72
2021/03/08 07:09:07;;;;;;;26.05;21.05;;;;;;;;;;4969583;28;20497;-71
2021/03/08 07:11:34;;;;;;;39.10;22.85;;;;;;;;;;4973266;28;20034;-73
2021/03/08 07:14:00;;;;;;;40.95;27.02;;;;;;;;;;4963399;28;20020;-72
2021/03/08 07:16:44;;;;;;;35.55;23.83;;;;;;;;;;4965483;28;20432;-69
2021/03/08 07:19:11;;;;;;;47.50;24.75;;;;;;;;;;4955417;28;20030;-71
2021/03/08 07:21:39;;;;;;;38.47;24.88;;;;;;;;;;4973190;28;20022;-70
2021/03/08 07:24:13;;;;;;;39.65;27.25;;;;;;;;;;4968056;28;20027;-74
2021/03/08 07:26:52;;;;;;;50.50;30.17;;;;;;;;;;4973325;28;20033;-73
2021/03/08 07:29:19;;;;;;;46.08;32.95;;;;;;;;;;4964902;28;20032;-69
2021/03/08 07:31:47;;;;;;;51.50;33.70;;;;;;;;;;4955912;28;20039;-69
2021/03/08 07:34:13;;;;;;;49.45;33.00;;;;;;;;;;4962831;28;20031;-67
2021/03/08 07:36:43;;;;;;;42.95;31.10;;;;;;;;;;4965301;28;20089;-71
2021/03/08 07:39:16;;;;;;;51.55;30.02;;;;;;;;;;4963888;28;20467;-71
2021/03/08 07:42:00;;;;;;;44.92;29.83;;;;;;;;;;4970636;28;20429;-73
2021/03/08 07:44:27;;;;;;;45.20;28.67;;;;;;;;;;4957996;28;20018;-74
2021/03/08 07:46:54;;;;;;;47.78;29.60;;;;;;;;;;4961625;28;20413;-70
2021/03/08 07:49:39;;;;;;;40.58;27.85;;;;;;;;;;4967180;28;20086;-75
2021/03/08 07:52:12;;;;;;;46.17;29.20;;;;;;;;;;4972338;28;20027;-71
2021/03/08 07:54:50;;;;;;;78.38;42.50;;;;;;;;;;4971017;28;20061;-75
2021/03/08 07:57:17;;;;;;;40.40;24.88;;;;;;;;;;4972303;28;20480;-69
2021/03/08 07:59:43;;;;;;;29.20;22.38;;;;;;;;;;4970164;28;20082;-70
2021/03/08 08:02:09;;;;;;;31.63;22.60;;;;;;;;;;4969282;28;20085;-70
2021/03/08 08:04:36;;;;;;;35.83;22.85;;;;;;;;;;4959841;28;20477;-76
2021/03/08 08:07:08;;;;;;;33.75;24.45;;;;;;;;;;4957584;28;20683;-72
2021/03/08 08:09:38;;;;;;;41.35;27.92;;;;;;;;;;4970745;28;20042;-74
2021/03/08 08:12:06;;;;;;;34.42;23.40;;;;;;;;;;4970252;28;20392;-68
2021/03/08 08:14:34;;;;;;;30.63;22.48;;;;;;;;;;4958508;28;20023;-71
2021/03/08 08:17:03;;;;;;;32.05;22.65;;;;;;;;;;4966721;28;20054;-72
2021/03/08 08:19:31;;;;;;;35.13;24.48;;;;;;;;;;4975857;28;20037;-74
2021/03/08 08:21:57;;;;;;;30.25;21.52;;;;;;;;;;4975138;28;20442;-71
2021/03/08 08:24:25;;;;;;;25.50;19.27;;;;;;;;;;4974308;28;20089;-74
2021/03/08 08:26:54;;;;;;;31.20;19.67;;;435.20;768.00;;;;;;4965932;28;20038;-71
2021/03/08 08:29:27;;;;;;;26.60;17.40;;;410.40;768.00;;;;;;4972507;28;20031;-74
2021/03/08 08:32:00;;;;;;;29.48;18.60;;;410.20;793.60;;;;;;4964392;28;20485;-74
2021/03/08 08:34:43;;;;;;;;;;;410.50;768.00;;;;;;4970309;28;20033;-71
2021/03/08 08:37:12;;;;;;;23.80;17.40;;;410.30;768.00;;;;;;4964361;28;19929;-69
2021/03/08 08:39:42;;;;;;;23.08;17.15;;;410.10;768.00;;;;;;4972774;28;20046;-69
2021/03/08 08:42:25;;;;;;;24.83;17.88;;;409.60;793.60;;;;;;4972439;28;20038;-69
2021/03/08 08:44:55;;;;;;;23.25;17.85;;;410.10;768.00;;;;;;4976604;28;20385;-71
2021/03/08 08:47:23;;;;;;;29.73;18.20;;;410.10;793.60;;;;;;4969223;28;20262;-70
2021/03/08 08:49:54;;;;;;;28.80;19.83;;;410.10;793.60;;;;;;4968044;28;20046;-71
2021/03/08 08:52:55;;;;;;;27.40;21.70;;;409.80;793.60;;;;;;4971285;28;20413;-70
2021/03/08 08:55:41;;;;;;;28.25;19.35;;;410.20;793.60;;;;;;4969985;28;20043;-71
2021/03/08 08:58:25;;;;;;;25.10;18.95;;;409.60;793.60;;;;;;4973977;28;20134;-71
2021/03/08 09:01:54;;;;;;;23.73;16.83;;;;;;;;;;4967528;28;20106;-67
2021/03/08 09:04:08;;;;;;;21.77;13.27;;;358.80;819.20;;;;;;4960571;28;20544;-69
2021/03/08 09:07:00;;;;;;;31.92;22.25;;;333.30;844.80;;;;;;4959080;28;20042;-70
2021/03/08 09:09:31;;;;;;;21.77;15.30;;;332.80;921.60;;;;;;4971072;28;20041;-72
2021/03/08 09:12:06;;;;;;;22.10;16.05;;;307.80;896.00;;;;;;4961242;28;20024;-72
2021/03/08 09:14:46;;;;;;;20.02;13.65;;;;;;;;;;4955178;28;20038;-73
2021/03/08 09:17:20;;;;;;;17.23;13.82;;;;;;;;;;4960841;28;20501;-72
2021/03/08 09:19:47;;;;;;;;;;;281.80;947.20;;;;;;4969257;28;20039;-71
2021/03/08 09:22:21;;;;;;;42.08;25.17;;;281.60;972.80;;;;;;4971348;28;19914;-72
2021/03/08 09:24:55;;;;;;;24.98;17.17;;;281.60;972.80;;;;;;4961052;28;20039;-73
2021/03/08 09:27:34;;;;;;;28.88;16.95;;;256.80;947.20;;;;;;4961950;28;20377;-70
2021/03/08 09:30:11;;;;;;;22.92;14.63;;;256.70;972.80;;;;;;4968939;28;20031;-73
2021/03/08 09:32:56;;;;;;;20.70;14.50;;;256.60;947.20;;;;;;4966877;28;20073;-71
2021/03/08 09:35:26;;;;;;;16.75;11.25;;;256.50;972.80;;;;;;4971175;28;20026;-70
2021/03/08 09:37:55;;;;;;;16.67;11.35;;;256.50;947.20;;;;;;4958613;28;20085;-73
2021/03/08 09:40:29;;;;;;;17.42;11.48;;;256.60;972.80;;;;;;4957665;28;20015;-73
2021/03/08 09:43:02;;;;;;;17.55;12.43;;;256.50;972.80;;;;;;4965067;28;20413;-72
2021/03/08 09:45:33;;;;;;;18.50;12.45;;;256.30;998.40;;;;;;4952668;28;20095;-73
2021/03/08 09:48:01;;;;;;;16.83;11.63;;;256.30;1024.00;;;;;;4963980;28;20420;-71
2021/03/08 09:50:33;;;;;;;14.55;11.00;;;256.30;998.40;;;;;;4962176;28;20027;-71
2021/03/08 09:52:59;;;;;;;19.23;11.63;;;256.30;972.80;;;;;;4962706;28;20100;-74
2021/03/08 09:55:32;;;;;;;20.95;13.77;;;256.20;998.40;;;;;;4969211;28;20074;-72
2021/03/08 09:57:58;;;;;;;20.67;13.90;;;256.10;998.40;;;;;;4971814;28;20105;-70
2021/03/08 10:00:28;;;;;;;16.25;13.05;;;256.00;998.40;;;;;;4972600;28;20023;-70
2021/03/08 10:03:05;;;;;;;15.25;11.30;;;256.10;998.40;;;;;;4973338;28;20493;-74
2021/03/08 10:05:44;;;;;;;19.25;12.27;;;256.10;972.80;;;;;;4960833;28;20548;-74
2021/03/08 10:08:11;;;;;;;16.77;12.75;;;256.10;972.80;;;;;;4971630;28;20046;-79
2021/03/08 10:10:49;;;;;;;28.40;18.05;;;256.10;972.80;;;;;;4966643;28;20019;-75
2021/03/08 10:13:17;;;;;;;33.95;19.85;;;256.30;998.40;;;;;;4970202;28;20055;-74
2021/03/08 10:15:47;;;;;;;18.70;12.77;;;256.30;998.40;;;;;;4979850;28;20053;-72
2021/03/08 10:18:14;;;;;;;24.45;12.57;;;256.40;998.40;;;;;;4964756;28;20071;-71
2021/03/08 10:20:59;;;;;;;19.20;12.30;;;256.50;947.20;;;;;;4973193;28;20022;-70
2021/03/08 10:23:27;;;;;;;19.90;14.65;;;256.60;947.20;;;;;;4958273;28;20118;-71
2021/03/08 10:26:07;;;;;;;16.05;12.73;;;256.70;947.20;;;;;;4965646;28;20082;-70
2021/03/08 10:28:36;;;;;;;21.45;13.27;;;256.90;921.60;;;;;;4967605;28;20019;-75
2021/03/08 10:31:15;;;;;;;19.80;13.55;;;281.70;947.20;;;;;;4976557;28;20563;-74
2021/03/08 10:33:44;;;;;;;21.60;15.93;;;281.70;921.60;;;;;;4961238;28;20031;-72
2021/03/08 10:36:10;;;;;;;19.50;13.23;;;282.10;921.60;;;;;;4966026;28;20024;-73
2021/03/08 10:38:36;;;;;;;17.73;11.80;;;282.30;921.60;;;;;;4969528;28;20400;-71
2021/03/08 10:41:04;;;;;;;20.50;13.60;;;282.40;921.60;;;;;;4965063;28;20038;-71
2021/03/08 10:43:31;;;;;;;18.63;14.23;;;282.30;896.00;;;;;;4974379;28;20031;-73
2021/03/08 10:46:00;;;;;;;20.33;12.38;;;282.30;921.60;;;;;;4974134;28;20389;-72
2021/03/08 10:48:27;;;;;;;20.85;13.35;;;282.30;896.00;;;;;;4972900;28;20445;-74
2021/03/08 10:50:55;;;;;;;23.05;14.60;;;282.30;921.60;;;;;;4971714;28;20130;-73
2021/03/08 10:53:25;;;;;;;27.25;18.77;;;282.30;921.60;;;;;;4966871;28;20573;-70
2021/03/08 10:55:52;;;;;;;26.23;16.58;;;282.40;921.60;;;;;;4971812;28;20045;-71
2021/03/08 10:58:36;;;;;;;48.25;23.10;;;282.30;921.60;;;;;;4974201;28;20074;-71
2021/03/08 11:01:08;;;;;;;30.75;16.25;;;282.40;921.60;;;;;;4972660;28;20031;-78
2021/03/08 11:03:41;;;;;;;22.80;16.52;;;282.30;947.20;;;;;;4974031;28;20035;-70
2021/03/08 11:06:14;;;;;;;29.92;18.38;;;282.30;947.20;;;;;;4968714;28;20037;-76
2021/03/08 11:08:41;;;;;;;;;;;282.30;947.20;;;;;;4967041;28;20039;-70
2021/03/08 11:11:15;;;;;;;22.63;16.73;;;282.10;947.20;;;;;;4978674;28;19981;-76
2021/03/08 11:13:41;;;;;;;22.83;15.23;;;282.00;947.20;;;;;;4968647;28;20019;-73
2021/03/08 11:16:08;;;;;;;25.38;16.90;;;281.90;972.80;;;;;;4969257;28;20034;-72
2021/03/08 11:18:35;;;;;;;27.80;18.77;;;282.00;998.40;;;;;;4968590;28;20058;-71
2021/03/08 11:21:20;;;;;;;21.63;15.48;;;281.90;972.80;;;;;;4964805;28;20027;-70
2021/03/08 11:23:46;;;;;;;26.17;15.43;;;281.80;947.20;;;;;;4979077;28;20125;-70
2021/03/08 11:26:12;;;;;;;21.63;15.27;;;281.80;972.80;;;;;;4973842;28;20463;-71
2021/03/08 11:28:39;;;;;;;19.65;13.65;;;281.70;972.80;;;;;;4974105;28;20027;-71
2021/03/08 11:31:05;;;;;;;19.00;14.50;;;281.60;972.80;;;;;;4969484;28;20101;-72
2021/03/08 11:33:37;;;;;;;18.52;13.55;;;256.90;947.20;;;;;;4971812;28;20022;-71
2021/03/08 11:36:03;;;;;;;20.70;13.80;;;281.60;972.80;;;;;;4961327;28;20027;-69
2021/03/08 11:38:31;;;;;;;19.73;12.68;;;281.60;972.80;;;;;;4961192;28;20043;-68
2021/03/08 11:40:58;;;;;;;16.10;12.43;;;281.60;972.80;;;;;;4971345;28;20089;-70
2021/03/08 11:43:25;;;;;;;21.88;13.07;;;281.60;998.40;;;;;;4966135;28;20044;-70
2021/03/08 11:45:52;;;;;;;18.15;12.95;;;281.60;972.80;;;;;;4955948;28;20073;-70
2021/03/08 11:48:25;;;;;;;20.35;13.38;;;281.60;972.80;;;;;;4973024;28;20777;-72
2021/03/08 11:50:51;;;;;;;25.20;13.03;;;256.80;947.20;;;;;;4961145;28;20023;-70
2021/03/08 11:53:17;;;;;;;21.92;13.32;;;256.90;972.80;;;;;;4966469;28;20031;-70
2021/03/08 11:55:42;;;;;;;18.13;13.02;;;281.60;998.40;;;;;;4957734;28;20568;-71
2021/03/08 11:58:08;;;;;;;21.63;12.57;;;256.90;972.80;;;;;;4974473;28;20046;-67
2021/03/08 12:00:34;;;;;;;17.65;12.60;;;281.60;998.40;;;;;;4969112;28;20022;-70
2021/03/08 12:03:00;;;;;;;17.55;12.30;;;256.90;972.80;;;;;;4963702;28;20022;-67
2021/03/08 12:05:25;;;;;;;24.45;12.98;;;281.60;998.40;;;;;;4972730;28;20053;-70
2021/03/08 12:07:51;;;;;;;27.77;16.48;;;281.60;1024.00;;;;;;4973444;28;20476;-70
2021/03/08 12:10:17;;;;;;;32.70;19.40;;;281.60;1024.00;;;;;;4970288;28;20030;-70
2021/03/08 12:12:43;;;;;;;23.05;14.43;;;281.60;1024.00;;;;;;4969643;28;20030;-69
2021/03/08 12:15:11;;;;;;;24.52;17.80;;;281.60;1024.00;;;;;;4973010;28;20121;-70
2021/03/08 12:17:37;;;;;;;17.48;13.32;;;281.60;1024.00;;;;;;4970024;28;20035;-78
2021/03/08 12:20:06;;;;;;;23.67;15.45;;;281.80;998.40;;;;;;4973035;28;20490;-71
2021/03/08 12:22:32;;;;;;;20.40;12.75;;;256.90;998.40;;;;;;4969905;28;20396;-79
2021/03/08 12:24:57;;;;;;;18.20;13.93;;;281.60;1024.00;;;;;;4972295;28;20037;-71
2021/03/08 12:27:23;;;;;;;20.92;14.73;;;281.60;1024.00;;;;;;4971242;28;20081;-70
2021/03/08 12:29:48;;;;;;;20.20;14.88;;;281.60;1024.00;;;;;;4969658;28;20033;-72
2021/03/08 12:32:14;;;;;;;23.70;15.30;;;281.60;1049.60;;;;;;4965788;28;20050;-72
2021/03/08 12:34:40;;;;;;;23.55;15.25;;;281.60;1049.60;;;;;;4953314;28;20030;-74
2021/03/08 12:37:06;;;;;;;26.05;14.20;;;281.70;1049.60;;;;;;4968863;28;20504;-74
2021/03/08 12:39:31;;;;;;;21.67;14.02;;;281.70;1049.60;;;;;;4963496;28;20031;-73
2021/03/08 12:41:57;;;;;;;19.33;12.40;;;281.70;1024.00;;;;;;4969316;28;20031;-69
2021/03/08 12:44:23;;;;;;;20.80;12.32;;;281.70;998.40;;;;;;4968855;28;20027;-70
2021/03/08 12:46:49;;;;;;;15.70;11.90;;;281.70;998.40;;;;;;4978232;28;20132;-74
2021/03/08 12:49:15;;;;;;;20.58;12.00;;;281.80;1024.00;;;;;;4972610;28;20023;-75
2021/03/08 12:51:40;;;;;;;18.15;12.70;;;281.80;1024.00;;;;;;4970856;28;20038;-74